Time;durP1;ratioP1;P1;durP2;ratioP2;P2;SDS_P1;SDS_P2;PMS_P1;PMS_P2;Temp;Humidity;BMP_temperature;BMP_pressure;BME280_temperature;BME280_humidity;BME280_pressure;Samples;Min_cycle;Max_cycle;Signal;HPM_P1;HPM_P2
2023/10/10 00:02:18;;;;;;;38.37;29.50;;;16.40;99.90;;;;;;5079064;28;20905;-59
2023/10/10 00:04:47;;;;;;;36.93;31.17;;;16.40;99.90;;;;;;5079180;28;20525;-59
2023/10/10 00:07:15;;;;;;;35.23;30.70;;;16.40;99.90;;;;;;5078649;28;20485;-59
2023/10/10 00:09:44;;;;;;;35.50;30.67;;;16.30;99.90;;;;;;5077944;28;20484;-59
2023/10/10 00:12:13;;;;;;;32.53;28.80;;;16.40;99.90;;;;;;5078560;28;20890;-59
2023/10/10 00:14:40;;;;;;;40.10;32.13;;;16.30;99.90;;;;;;5078259;28;20547;-59
2023/10/10 00:17:13;;;;;;;36.37;32.00;;;16.30;99.90;;;;;;5078409;28;20473;-60
2023/10/10 00:19:54;;;;;;;34.30;29.30;;;16.20;99.90;;;;;;5078308;28;20462;-59
2023/10/10 00:22:33;;;;;;;36.27;31.17;;;16.20;99.90;;;;;;5078250;28;20817;-59
2023/10/10 00:25:04;;;;;;;36.50;32.57;;;16.20;99.90;;;;;;5078234;28;20532;-59
2023/10/10 00:27:32;;;;;;;40.83;31.67;;;16.20;99.90;;;;;;5078280;28;20609;-60
2023/10/10 00:30:01;;;;;;;37.03;32.20;;;16.20;99.90;;;;;;5077524;28;20500;-59
2023/10/10 00:32:35;;;;;;;35.70;30.30;;;16.10;99.90;;;;;;5078459;28;20894;-59
2023/10/10 00:35:06;;;;;;;34.43;30.13;;;16.10;99.90;;;;;;5078190;28;20490;-59
2023/10/10 00:37:34;;;;;;;39.13;32.37;;;16.00;99.90;;;;;;5078271;28;20458;-59
2023/10/10 00:40:08;;;;;;;39.00;32.60;;;16.10;1.00;;;;;;5077771;28;20468;-59
2023/10/10 00:42:38;;;;;;;45.30;33.50;;;16.10;1.00;;;;;;5077858;28;20461;-58
2023/10/10 00:45:09;;;;;;;42.30;32.53;;;16.10;1.00;;;;;;5077881;28;20485;-58
2023/10/10 00:47:42;;;;;;;45.50;33.53;;;16.10;1.00;;;;;;5077512;28;20461;-59
2023/10/10 00:50:15;;;;;;;38.90;32.90;;;16.10;1.00;;;;;;5077909;28;20555;-58
2023/10/10 00:52:44;;;;;;;38.93;32.10;;;16.10;1.00;;;;;;5077712;28;20461;-58
2023/10/10 00:55:13;;;;;;;34.00;30.57;;;16.10;1.00;;;;;;5077883;28;20453;-57
2023/10/10 00:57:42;;;;;;;43.60;33.90;;;16.10;1.00;;;;;;5077149;28;20511;-59
2023/10/10 01:00:14;;;;;;;39.03;31.37;;;16.10;1.00;;;;;;5077630;28;20469;-59
2023/10/10 01:02:45;;;;;;;35.60;31.80;;;16.10;1.00;;;;;;5076566;28;20462;-59
2023/10/10 01:05:13;;;;;;;38.87;31.87;;;16.10;1.00;;;;;;5077091;28;20499;-59
2023/10/10 01:07:43;;;;;;;37.47;31.20;;;16.10;1.00;;;;;;5077393;28;20886;-59
2023/10/10 01:10:16;;;;;;;43.70;33.07;;;16.10;1.00;;;;;;5077237;28;20796;-59
2023/10/10 01:12:46;;;;;;;43.60;32.30;;;16.00;1.00;;;;;;5077603;28;20483;-59
2023/10/10 01:15:16;;;;;;;38.43;30.93;;;16.00;1.00;;;;;;5077743;28;20738;-58
2023/10/10 01:17:45;;;;;;;35.50;30.77;;;16.00;1.00;;;;;;5077547;28;20905;-59
2023/10/10 01:20:25;;;;;;;34.27;30.23;;;16.00;1.00;;;;;;5076912;28;20732;-59
2023/10/10 01:22:56;;;;;;;37.73;32.90;;;15.90;1.00;;;;;;5077443;28;20582;-58
2023/10/10 01:25:42;;;;;;;40.37;32.43;;;15.90;1.00;;;;;;5077660;28;20850;-59
2023/10/10 01:28:27;;;;;;;42.00;34.27;;;15.90;1.00;;;;;;5077121;28;20511;-59
2023/10/10 01:31:03;;;;;;;40.10;32.63;;;15.90;1.00;;;;;;5077565;28;20458;-59
2023/10/10 01:33:42;;;;;;;46.17;35.77;;;15.80;1.00;;;;;;5077389;28;20510;-59
2023/10/10 01:36:13;;;;;;;38.97;32.97;;;15.80;1.00;;;;;;5077456;28;20948;-58
2023/10/10 01:39:23;;;;;;;42.00;35.20;;;15.80;1.00;;;;;;5077463;28;20453;-58
2023/10/10 01:41:51;;;;;;;52.60;35.80;;;15.80;1.00;;;;;;5077249;28;20488;-59
2023/10/10 01:44:22;;;;;;;46.77;34.90;;;15.80;1.00;;;;;;5076799;28;20493;-59
2023/10/10 01:46:51;;;;;;;49.83;34.80;;;15.80;1.00;;;;;;5077208;28;20514;-59
2023/10/10 01:49:21;;;;;;;47.00;36.60;;;15.80;1.00;;;;;;5076995;28;20461;-59
2023/10/10 01:51:54;;;;;;;52.60;36.00;;;15.80;1.00;;;;;;5077022;28;20468;-58
2023/10/10 01:54:34;;;;;;;46.33;35.97;;;15.70;1.00;;;;;;5076888;28;20457;-59
2023/10/10 01:57:06;;;;;;;41.10;35.60;;;15.80;1.00;;;;;;5076288;28;20806;-59
2023/10/10 01:59:38;;;;;;;45.47;39.60;;;15.80;1.00;;;;;;5077195;28;20526;-59
2023/10/10 02:02:10;;;;;;;47.43;39.33;;;15.80;1.00;;;;;;5076594;28;20492;-59
2023/10/10 02:04:39;;;;;;;46.37;38.60;;;15.70;1.00;;;;;;5076971;28;20541;-59
2023/10/10 02:07:14;;;;;;;46.37;41.33;;;15.80;1.00;;;;;;5077516;28;20762;-59
2023/10/10 02:09:43;;;;;;;46.83;39.80;;;15.80;1.00;;;;;;5076568;28;20492;-59
2023/10/10 02:12:16;;;;;;;47.73;40.33;;;15.70;1.00;;;;;;5076388;28;20461;-59
2023/10/10 02:14:43;;;;;;;46.40;41.50;;;15.70;1.00;;;;;;5079585;28;20571;-60
2023/10/10 02:17:22;;;;;;;48.20;42.40;;;15.70;1.00;;;;;;5080792;28;20882;-59
2023/10/10 02:19:59;;;;;;;62.87;45.47;;;15.70;1.00;;;;;;5080672;28;20511;-59
2023/10/10 02:22:47;;;;;;;65.60;45.03;;;15.70;1.00;;;;;;5080912;28;20467;-58
2023/10/10 02:28:03;;;;;;;70.13;47.80;;;15.70;1.00;;;;;;5080352;28;20440;-59
2023/10/10 02:30:36;;;;;;;74.13;52.10;;;15.70;1.00;;;;;;5080182;28;20471;-59
2023/10/10 02:33:22;;;;;;;72.83;51.47;;;15.70;1.00;;;;;;5080355;28;20461;-59
2023/10/10 02:35:56;;;;;;;81.73;54.03;;;15.70;1.00;;;;;;5080549;28;20464;-58
2023/10/10 02:38:31;;;;;;;82.87;54.60;;;15.60;34.20;;;;;;5080163;28;20901;-60
2023/10/10 02:41:15;;;;;;;72.93;55.33;;;15.60;42.70;;;;;;5080637;28;20468;-59
2023/10/10 02:43:55;;;;;;;73.87;52.97;;;15.50;70.10;;;;;;5079611;28;20470;-58
2023/10/10 02:46:33;;;;;;;80.83;55.03;;;15.50;99.90;;;;;;5080176;28;20453;-59
2023/10/10 02:49:09;;;;;;;73.53;52.30;;;15.50;99.90;;;;;;5067263;28;20454;-58
2023/10/10 02:51:40;;;;;;;72.33;53.47;;;15.50;99.90;;;;;;5059381;28;20744;-59
2023/10/10 02:54:21;;;;;;;70.20;51.17;;;15.50;99.90;;;;;;5059589;28;20504;-58
2023/10/10 02:56:51;;;;;;;76.20;52.80;;;15.60;99.90;;;;;;5060156;28;20477;-59
2023/10/10 02:59:22;;;;;;;79.27;53.23;;;15.60;99.90;;;;;;5060233;28;20508;-59
2023/10/10 03:01:59;;;;;;;81.93;51.83;;;15.60;99.90;;;;;;5059657;28;20565;-59
2023/10/10 03:04:52;;;;;;;84.20;54.77;;;15.50;99.90;;;;;;5059625;28;20489;-59
2023/10/10 03:07:27;;;;;;;81.13;54.30;;;15.50;99.90;;;;;;5059711;28;20557;-59
2023/10/10 03:10:22;;;;;;;80.57;53.10;;;15.60;99.90;;;;;;5059171;28;20996;-59
2023/10/10 03:12:51;;;;;;;81.07;54.17;;;15.60;99.90;;;;;;5060144;28;20470;-59
2023/10/10 03:21:07;;;;;;;80.73;54.30;;;15.50;99.90;;;;;;5056602;28;20537;-59
2023/10/10 03:23:41;;;;;;;88.03;51.87;;;15.50;99.90;;;;;;5071179;28;20867;-59
2023/10/10 03:26:18;;;;;;;74.23;51.67;;;15.40;99.90;;;;;;5075809;28;20501;-59
2023/10/10 03:28:49;;;;;;;90.60;55.77;;;15.40;99.90;;;;;;5067714;28;20473;-58
2023/10/10 03:31:24;;;;;;;85.93;53.67;;;15.40;99.90;;;;;;5059456;28;20473;-59
2023/10/10 03:34:10;;;;;;;80.73;53.83;;;15.40;99.90;;;;;;5059344;28;20767;-59
2023/10/10 03:36:44;;;;;;;78.70;50.53;;;15.40;99.90;;;;;;5059557;28;20588;-59
2023/10/10 03:39:25;;;;;;;85.33;55.33;;;15.40;99.90;;;;;;5059518;28;20815;-60
2023/10/10 05:23:58;;;;;;;74.07;54.90;;;14.30;99.90;;;;;;5077127;28;20533;-59
2023/10/10 05:26:30;;;;;;;75.07;56.17;;;14.30;99.90;;;;;;5077528;28;20981;-59
2023/10/10 05:28:59;;;;;;;76.73;57.73;;;14.10;99.90;;;;;;5077170;28;20461;-59
2023/10/10 05:31:30;;;;;;;70.43;53.13;;;14.10;99.90;;;;;;5077189;28;20465;-58
2023/10/10 05:34:02;;;;;;;80.43;53.43;;;14.10;99.90;;;;;;5075935;28;20871;-59
2023/10/10 05:36:29;;;;;;;73.13;51.83;;;14.10;99.90;;;;;;5074796;28;20464;-59
2023/10/10 05:38:58;;;;;;;70.30;55.03;;;14.00;99.90;;;;;;5075095;28;20471;-58
2023/10/10 05:41:25;;;;;;;83.47;59.70;;;14.10;99.90;;;;;;5075270;28;20462;-57
2023/10/10 05:43:52;;;;;;;82.47;57.90;;;14.10;99.90;;;;;;5075036;28;20463;-59
2023/10/10 05:46:23;;;;;;;82.53;56.00;;;14.20;99.90;;;;;;5071763;28;20930;-57
2023/10/10 05:48:50;;;;;;;87.33;58.50;;;14.20;99.90;;;;;;5071590;28;20580;-59
2023/10/10 05:51:17;;;;;;;79.00;57.07;;;14.20;99.90;;;;;;5079250;28;20865;-59
2023/10/10 05:53:46;;;;;;;78.80;58.10;;;14.20;99.90;;;;;;5080465;28;20457;-59
2023/10/10 05:56:16;;;;;;;82.93;58.07;;;14.10;99.90;;;;;;5080935;28;20461;-59
2023/10/10 05:58:47;;;;;;;78.90;58.00;;;14.10;99.90;;;;;;5080851;28;20461;-60
2023/10/10 06:01:15;;;;;;;80.87;57.33;;;14.10;99.90;;;;;;5081514;28;20457;-59
2023/10/10 06:03:44;;;;;;;80.40;57.47;;;14.10;99.90;;;;;;5081022;28;20461;-59
2023/10/10 06:06:13;;;;;;;77.27;58.10;;;14.20;99.90;;;;;;5080956;28;20589;-59
2023/10/10 06:08:43;;;;;;;83.83;58.67;;;14.20;99.90;;;;;;5080560;28;20489;-59
2023/10/10 06:11:13;;;;;;;72.53;57.37;;;14.20;99.90;;;;;;5081058;28;20878;-59
2023/10/10 06:13:43;;;;;;;75.33;57.33;;;14.20;99.90;;;;;;5080808;28;20960;-59
2023/10/10 06:16:14;;;;;;;80.07;59.00;;;14.20;99.90;;;;;;5080800;28;20461;-59
2023/10/10 06:18:44;;;;;;;80.20;61.00;;;14.20;99.90;;;;;;5068900;28;20449;-59
2023/10/10 06:21:12;;;;;;;77.73;59.50;;;14.30;99.90;;;;;;5078034;28;20458;-59
2023/10/10 06:23:41;;;;;;;76.73;56.90;;;14.30;99.90;;;;;;5077174;28;20902;-59
2023/10/10 06:26:09;;;;;;;72.50;55.53;;;14.40;99.90;;;;;;5077354;28;20492;-59
2023/10/10 06:28:42;;;;;;;70.47;54.83;;;14.40;99.90;;;;;;5080325;28;20460;-59
2023/10/10 06:31:17;;;;;;;75.40;55.57;;;14.40;99.90;;;;;;5081189;28;20559;-59
2023/10/10 06:33:44;;;;;;;70.33;53.70;;;14.40;99.90;;;;;;5080468;28;20465;-59
2023/10/10 06:41:43;;;;;;;66.17;54.70;;;14.50;99.90;;;;;;5079492;28;20579;-59
2023/10/10 06:44:13;;;;;;;62.90;51.80;;;14.60;99.90;;;;;;5080033;28;20461;-59
2023/10/10 06:46:42;;;;;;;61.17;49.67;;;14.60;99.90;;;;;;5080114;28;20537;-59
2023/10/10 06:49:12;;;;;;;64.07;50.17;;;14.60;99.90;;;;;;5079783;28;20465;-59
2023/10/10 06:51:40;;;;;;;64.00;49.73;;;14.70;99.90;;;;;;5080073;28;20464;-59
2023/10/10 06:54:09;;;;;;;60.53;49.23;;;14.70;99.90;;;;;;5080216;28;20457;-59
2023/10/10 06:56:53;;;;;;;55.60;49.50;;;14.70;99.90;;;;;;5079555;28;20557;-58
2023/10/10 06:59:25;;;;;;;61.73;47.90;;;14.70;99.90;;;;;;5080146;28;20500;-59
2023/10/10 07:01:54;;;;;;;59.23;47.03;;;14.80;99.90;;;;;;5071295;28;20469;-58
2023/10/10 07:04:23;;;;;;;53.67;45.53;;;14.90;97.90;;;;;;5059015;28;20474;-60
2023/10/10 07:06:51;;;;;;;53.80;42.60;;;14.90;1.00;;;;;;5059770;28;20505;-59
2023/10/10 07:09:28;;;;;;;51.70;43.80;;;15.00;1.00;;;;;;5059331;28;20543;-59
2023/10/10 07:11:56;;;;;;;53.97;43.60;;;15.00;1.00;;;;;;5059415;28;20561;-59
2023/10/10 07:14:25;;;;;;;46.50;39.27;;;15.10;99.90;;;;;;5058925;28;20462;-60
2023/10/10 07:16:56;;;;;;;53.70;40.60;;;15.10;1.00;;;;;;5059848;28;20458;-59
2023/10/10 07:19:29;;;;;;;45.60;36.17;;;15.10;1.00;;;;;;5059793;28;20462;-59
2023/10/10 07:21:56;;;;;;;51.23;40.83;;;15.10;1.00;;;;;;5064026;28;20461;-59
2023/10/10 07:24:28;;;;;;;48.30;38.67;;;15.30;1.00;;;;;;5078703;28;20858;-59
2023/10/10 07:27:11;;;;;;;41.43;35.50;;;15.50;1.00;;;;;;5079404;28;20980;-60
2023/10/10 07:32:29;;;;;;;47.43;35.07;;;15.50;99.90;;;;;;5076950;28;20444;-59
2023/10/10 07:34:58;;;;;;;40.03;35.60;;;15.70;99.90;;;;;;5077601;28;20645;-58
2023/10/10 07:37:29;;;;;;;39.10;32.70;;;15.90;99.90;;;;;;5076402;28;20937;-59
2023/10/10 07:40:06;;;;;;;40.13;32.60;;;16.00;99.90;;;;;;5076338;28;20561;-60
2023/10/10 07:42:36;;;;;;;41.43;32.47;;;16.10;99.90;;;;;;5076693;28;20773;-60
2023/10/10 07:45:13;;;;;;;40.87;32.30;;;16.20;93.80;;;;;;5076710;28;20523;-60
2023/10/10 07:50:26;;;;;;;38.77;31.90;;;16.50;15.90;;;;;;5077204;28;20438;-59
2023/10/10 07:52:54;;;;;;;33.07;27.63;;;16.60;1.00;;;;;;5077739;28;20458;-60
2023/10/10 07:55:22;;;;;;;35.60;28.00;;;16.60;1.00;;;;;;5077264;28;20596;-58
2023/10/10 07:57:56;;;;;;;34.90;31.10;;;16.70;1.00;;;;;;5076431;28;20461;-60
2023/10/10 08:00:34;;;;;;;35.23;28.80;;;16.90;1.00;;;;;;5077196;28;20460;-60
2023/10/10 08:03:05;;;;;;;37.33;28.43;;;17.00;1.00;;;;;;5078279;28;20514;-60
2023/10/10 08:05:32;;;;;;;34.20;27.37;;;17.20;1.00;;;;;;5078750;28;20464;-60
2023/10/10 08:08:04;;;;;;;33.37;27.10;;;17.30;99.90;;;;;;5078065;28;20464;-60
2023/10/10 08:10:38;;;;;;;32.43;24.90;;;17.50;1.00;;;;;;5078551;28;20461;-60
2023/10/10 08:13:10;;;;;;;28.27;24.40;;;17.70;99.90;;;;;;5078336;28;20914;-60
2023/10/10 08:15:48;;;;;;;26.03;23.20;;;17.90;99.90;;;;;;5078114;28;20464;-60
2023/10/10 08:18:41;;;;;;;29.67;23.13;;;18.20;99.90;;;;;;5078427;28;20461;-60
2023/10/10 08:21:10;;;;;;;28.00;21.63;;;18.60;99.90;;;;;;5078353;28;20926;-60
2023/10/10 08:23:42;;;;;;;25.73;22.10;;;18.70;99.90;;;;;;5078078;28;20461;-60
2023/10/10 08:26:12;;;;;;;30.97;23.13;;;18.80;99.90;;;;;;5078125;28;20486;-60
2023/10/10 08:28:39;;;;;;;27.50;21.70;;;19.00;97.20;;;;;;5078504;28;20752;-60
2023/10/10 08:31:06;;;;;;;27.03;20.97;;;19.00;59.10;;;;;;5078198;28;20496;-60
2023/10/10 08:33:36;;;;;;;22.70;18.03;;;19.10;1.00;;;;;;5078453;28;20458;-60
2023/10/10 08:36:03;;;;;;;25.03;18.60;;;19.20;1.00;;;;;;5077885;28;20750;-60
2023/10/10 08:38:31;;;;;;;20.50;18.03;;;19.20;1.00;;;;;;5072586;28;20484;-61
2023/10/10 08:41:08;;;;;;;23.37;18.07;;;19.20;1.00;;;;;;5077255;28;20467;-60
2023/10/10 08:43:38;;;;;;;20.40;17.03;;;19.30;1.00;;;;;;5075148;28;20947;-60
2023/10/10 08:46:09;;;;;;;31.17;19.50;;;19.30;1.00;;;;;;5073525;28;20933;-61
2023/10/10 08:48:39;;;;;;;20.43;16.03;;;19.30;1.00;;;;;;5077988;28;20457;-60
2023/10/10 08:51:07;;;;;;;21.77;16.20;;;19.30;1.00;;;;;;5076632;28;20457;-61
2023/10/10 08:53:38;;;;;;;18.67;15.97;;;19.40;99.90;;;;;;5077981;28;20465;-61
2023/10/10 08:56:07;;;;;;;18.30;14.40;;;19.40;99.90;;;;;;5077585;28;20572;-61
2023/10/10 08:58:35;;;;;;;17.80;15.13;;;19.40;99.90;;;;;;5077598;28;20474;-60
2023/10/10 09:01:05;;;;;;;18.77;14.83;;;19.40;97.60;;;;;;5074400;28;20909;-61
2023/10/10 09:03:34;;;;;;;17.63;14.83;;;19.50;1.00;;;;;;5070395;28;20757;-61
2023/10/10 09:06:15;;;;;;;19.50;15.80;;;19.70;99.90;;;;;;5077647;28;21017;-60
2023/10/10 09:08:44;;;;;;;19.10;16.03;;;19.90;99.90;;;;;;5077126;28;20523;-61
2023/10/10 09:11:12;;;;;;;18.50;15.07;;;20.00;99.90;;;;;;5077635;28;20770;-61
2023/10/10 09:13:51;;;;;;;20.77;16.43;;;20.10;99.90;;;;;;5077144;28;20462;-61
2023/10/10 09:16:21;;;;;;;22.00;13.93;;;20.30;99.90;;;;;;5077125;28;20433;-60
2023/10/10 09:19:09;;;;;;;19.70;14.10;;;20.50;25.20;;;;;;5077071;28;20922;-61
2023/10/10 09:21:55;;;;;;;20.80;13.70;;;20.60;25.70;;;;;;5075484;28;20552;-60
2023/10/10 09:24:29;;;;;;;23.93;13.47;;;20.70;1.00;;;;;;5074673;28;20558;-61
2023/10/10 09:26:56;;;;;;;19.27;13.83;;;20.70;1.00;;;;;;5075779;28;20493;-61
2023/10/10 09:29:42;;;;;;;18.43;12.37;;;20.80;1.00;;;;;;5075823;28;20464;-60
2023/10/10 09:32:13;;;;;;;15.70;12.20;;;21.00;1.00;;;;;;5075516;28;20894;-61
2023/10/10 09:34:41;;;;;;;17.80;13.20;;;21.20;1.00;;;;;;5076403;28;20500;-61
2023/10/10 09:37:17;;;;;;;12.63;11.13;;;21.30;1.00;;;;;;5077401;28;20547;-61
2023/10/10 09:39:54;;;;;;;16.70;11.47;;;21.40;1.00;;;;;;5077037;28;20518;-61
2023/10/10 09:42:45;;;;;;;14.43;11.50;;;21.50;1.00;;;;;;5077212;28;20949;-60
2023/10/10 09:45:27;;;;;;;13.50;10.97;;;21.60;1.00;;;;;;5077142;28;20849;-59
2023/10/10 09:47:57;;;;;;;19.73;10.70;;;21.60;1.00;;;;;;5076900;28;20500;-59
2023/10/10 09:53:20;;;;;;;11.93;9.00;;;21.70;1.00;;;;;;5071173;28;20463;-59
2023/10/10 09:55:53;;;;;;;13.80;11.53;;;21.90;1.00;;;;;;5076122;28;20514;-60
2023/10/10 09:58:28;;;;;;;14.60;10.30;;;21.90;99.90;;;;;;5076465;28;20461;-60
2023/10/10 10:01:04;;;;;;;15.20;10.20;;;21.90;99.90;;;;;;5076795;28;20474;-59
2023/10/10 10:03:49;;;;;;;13.53;9.13;;;22.00;99.90;;;;;;5076922;28;20952;-60
2023/10/10 10:06:36;;;;;;;16.30;9.60;;;22.20;99.90;;;;;;5075799;28;20542;-60
2023/10/10 10:09:32;;;;;;;13.63;10.00;;;22.40;99.90;;;;;;5076481;28;20485;-60
2023/10/10 10:12:19;;;;;;;13.73;9.73;;;22.50;1.00;;;;;;5075972;28;20488;-59
2023/10/10 10:14:54;;;;;;;13.13;9.40;;;22.70;1.00;;;;;;5076674;28;20461;-60
2023/10/10 10:17:47;;;;;;;10.87;8.60;;;22.80;99.90;;;;;;5076603;28;20457;-60
2023/10/10 10:20:23;;;;;;;11.17;9.00;;;23.00;99.90;;;;;;5076008;28;20457;-60
2023/10/10 10:22:53;;;;;;;11.23;7.77;;;23.00;1.00;;;;;;5076793;28;20463;-59
2023/10/10 10:25:28;;;;;;;8.20;7.40;;;23.00;51.30;;;;;;5076734;28;20461;-59
2023/10/10 10:28:10;;;;;;;10.50;7.50;;;23.00;99.90;;;;;;5076284;28;20588;-60
2023/10/10 10:30:51;;;;;;;12.30;7.93;;;23.10;99.90;;;;;;5076541;28;20886;-60
2023/10/10 10:33:23;;;;;;;10.57;8.07;;;23.00;99.90;;;;;;5076335;28;20464;-59
2023/10/10 10:36:16;;;;;;;10.43;8.10;;;23.10;55.40;;;;;;5079030;28;20874;-60
2023/10/10 10:41:51;;;;;;;8.33;7.37;;;23.20;74.30;;;;;;5079896;28;20444;-59
2023/10/10 10:44:47;;;;;;;11.10;7.60;;;23.40;99.90;;;;;;5079202;28;20559;-59
2023/10/10 10:47:53;;;;;;;9.93;8.17;;;23.30;99.90;;;;;;5078658;28;20964;-60
2023/10/10 10:50:42;;;;;;;9.73;6.83;;;23.50;99.90;;;;;;5076409;28;20465;-60
2023/10/10 10:53:30;;;;;;;8.73;7.83;;;23.50;99.90;;;;;;5079875;28;20457;-60
2023/10/10 10:59:12;;;;;;;10.10;6.83;;;23.80;99.90;;;;;;5079442;28;20905;-59
2023/10/10 11:01:51;;;;;;;10.60;7.03;;;23.80;1.00;;;;;;5079468;28;20461;-60
2023/10/10 11:04:43;;;;;;;10.97;7.40;;;23.70;1.00;;;;;;5077010;28;20497;-59
2023/10/10 11:07:16;;;;;;;11.90;6.90;;;23.80;1.00;;;;;;5078478;28;20493;-60
2023/10/10 11:09:52;;;;;;;8.37;6.80;;;24.10;1.00;;;;;;5076197;28;20524;-59
2023/10/10 11:12:31;;;;;;;11.07;7.17;;;24.30;1.00;;;;;;5077307;28;20575;-60
2023/10/10 11:15:08;;;;;;;9.90;6.43;;;24.60;99.90;;;;;;5076024;28;20461;-59
2023/10/10 11:17:39;;;;;;;9.30;6.03;;;24.60;99.90;;;;;;5076439;28;20766;-60
2023/10/10 11:20:54;;;;;;;10.20;8.50;;;24.80;1.00;;;;;;5077201;28;20781;-60
2023/10/10 11:23:17;;;;;;;9.33;6.60;;;25.10;1.00;;;;;;5077770;28;20481;-59
2023/10/10 11:25:58;;;;;;;8.60;6.43;;;25.00;1.00;;;;;;5078060;28;20833;-60
2023/10/10 11:28:45;;;;;;;10.53;6.67;;;25.00;99.90;;;;;;5078333;28;20493;-59
2023/10/10 11:31:16;;;;;;;9.27;6.20;;;25.20;99.90;;;;;;5079085;28;20933;-60
2023/10/10 11:33:48;;;;;;;6.73;6.00;;;25.10;1.00;;;;;;5077237;28;20743;-59
2023/10/10 11:36:29;;;;;;;11.63;6.60;;;25.30;99.90;;;;;;5077353;28;20914;-60
2023/10/10 11:39:15;;;;;;;6.97;6.10;;;25.40;99.90;;;;;;5077398;28;20906;-60
2023/10/10 11:41:43;;;;;;;7.80;6.50;;;25.30;1.00;;;;;;5077600;28;20468;-60
2023/10/10 11:44:10;;;;;;;7.50;6.30;;;25.20;1.00;;;;;;5077075;28;20528;-60
2023/10/10 11:46:39;;;;;;;9.03;7.20;;;25.40;1.00;;;;;;5076368;28;20497;-61
2023/10/10 11:49:06;;;;;;;7.23;5.80;;;25.60;99.90;;;;;;5077389;28;20464;-61
2023/10/10 11:51:35;;;;;;;9.63;6.20;;;25.90;1.00;;;;;;5077109;28;20830;-61
2023/10/10 11:54:02;;;;;;;9.50;7.03;;;25.80;99.90;;;;;;5078092;28;20461;-61
2023/10/10 11:56:34;;;;;;;7.97;6.20;;;25.80;1.00;;;;;;5077872;28;20543;-61
2023/10/10 11:59:06;;;;;;;6.90;6.07;;;25.80;1.00;;;;;;5077501;28;20551;-61
2023/10/10 12:01:49;;;;;;;8.97;7.37;;;25.90;99.90;;;;;;5077675;28;20883;-61
2023/10/10 12:04:30;;;;;;;8.27;6.77;;;25.80;1.00;;;;;;5077040;28;20468;-60
2023/10/10 12:07:04;;;;;;;8.20;7.03;;;25.80;49.40;;;;;;5076324;28;20520;-61
2023/10/10 12:09:31;;;;;;;9.87;6.30;;;26.00;99.90;;;;;;5076565;28;20491;-61
2023/10/10 12:12:02;;;;;;;7.13;5.83;;;26.20;99.90;;;;;;5076591;28;20457;-62
2023/10/10 12:14:31;;;;;;;7.07;6.27;;;26.50;51.40;;;;;;5076942;28;20564;-59
2023/10/10 12:17:05;;;;;;;7.73;6.60;;;26.80;1.00;;;;;;5076792;28;20551;-60
2023/10/10 12:19:43;;;;;;;8.43;6.03;;;27.00;20.50;;;;;;5077507;28;20468;-61
2023/10/10 12:22:11;;;;;;;10.33;6.53;;;26.90;1.00;;;;;;5077932;28;20745;-61
2023/10/10 12:24:40;;;;;;;7.60;6.77;;;26.70;99.90;;;;;;5077876;28;20463;-61
2023/10/10 12:27:08;;;;;;;6.97;5.93;;;26.70;99.90;;;;;;5077753;28;20500;-61
2023/10/10 12:29:39;;;;;;;9.40;7.00;;;26.90;1.00;;;;;;5077952;28;20465;-60
2023/10/10 12:32:15;;;;;;;7.90;5.10;;;26.70;1.00;;;;;;5078335;28;20739;-60
2023/10/10 12:34:45;;;;;;;7.13;5.83;;;26.70;1.00;;;;;;5077904;28;20765;-60
2023/10/10 12:37:15;;;;;;;7.83;6.00;;;26.60;1.00;;;;;;5077710;28;20496;-60
2023/10/10 12:39:43;;;;;;;7.67;6.00;;;26.50;99.90;;;;;;5077881;28;20560;-60
2023/10/10 12:42:10;;;;;;;11.67;5.73;;;26.60;99.90;;;;;;5077978;28;20461;-60
2023/10/10 12:44:37;;;;;;;8.70;5.73;;;26.60;99.90;;;;;;5077151;28;20536;-60
2023/10/10 12:47:07;;;;;;;7.03;5.50;;;26.70;1.00;;;;;;5076975;28;20489;-60
2023/10/10 12:49:44;;;;;;;9.27;6.63;;;26.70;1.00;;;;;;5076438;28;20461;-59
2023/10/10 12:52:13;;;;;;;7.90;6.60;;;26.70;1.00;;;;;;5075699;28;20501;-60
2023/10/10 12:54:41;;;;;;;13.13;6.30;;;26.30;99.90;;;;;;5076758;28;20469;-60
2023/10/10 12:57:13;;;;;;;9.47;6.20;;;26.30;1.00;;;;;;5076841;28;20489;-59
2023/10/10 12:59:46;;;;;;;9.17;6.07;;;26.30;1.00;;;;;;5076441;28;20461;-59
2023/10/10 13:02:16;;;;;;;8.70;6.17;;;26.40;1.00;;;;;;5076650;28;20468;-60
2023/10/10 13:04:46;;;;;;;8.07;6.30;;;26.60;99.90;;;;;;5075835;28;20552;-60
2023/10/10 13:07:16;;;;;;;12.40;7.20;;;26.70;99.90;;;;;;5075254;28;20961;-59
2023/10/10 13:09:46;;;;;;;11.67;6.37;;;26.70;32.60;;;;;;5075682;28;20926;-59
2023/10/10 13:12:27;;;;;;;11.23;6.70;;;26.70;99.90;;;;;;5075765;28;20458;-59
2023/10/10 13:15:06;;;;;;;7.90;5.63;;;26.60;88.60;;;;;;5074371;28;20560;-60
2023/10/10 13:17:49;;;;;;;7.77;5.83;;;26.60;99.90;;;;;;5076352;28;20947;-59
2023/10/10 13:20:18;;;;;;;12.03;6.60;;;26.50;99.90;;;;;;5076339;28;20465;-59
2023/10/10 13:22:50;;;;;;;10.53;6.10;;;26.70;1.00;;;;;;5076023;28;20462;-59
2023/10/10 13:25:19;;;;;;;7.57;5.80;;;26.80;1.00;;;;;;5077292;28;20731;-60
2023/10/10 13:27:49;;;;;;;14.80;7.17;;;26.70;99.90;;;;;;5077321;28;20861;-60
2023/10/10 13:30:16;;;;;;;12.27;6.13;;;26.60;99.90;;;;;;5070903;28;20531;-60
2023/10/10 13:32:44;;;;;;;10.13;6.50;;;26.80;1.00;;;;;;5055447;28;20513;-58
2023/10/10 13:35:12;;;;;;;14.20;6.27;;;26.70;1.00;;;;;;5054720;28;20866;-60
2023/10/10 13:37:41;;;;;;;11.30;5.70;;;26.70;99.90;;;;;;5055597;28;20504;-60
2023/10/10 13:40:20;;;;;;;11.30;6.17;;;26.70;1.00;;;;;;5055715;28;20465;-58
2023/10/10 13:42:48;;;;;;;9.80;5.80;;;26.50;99.90;;;;;;5055696;28;20959;-59
2023/10/10 13:45:21;;;;;;;10.67;6.40;;;26.40;1.00;;;;;;5056311;28;20475;-59
2023/10/10 13:47:49;;;;;;;9.97;6.20;;;26.40;1.00;;;;;;5055550;28;20501;-59
2023/10/10 13:50:31;;;;;;;9.70;6.37;;;26.30;68.70;;;;;;5056387;28;20468;-59
2023/10/10 13:52:59;;;;;;;9.03;5.70;;;26.20;1.00;;;;;;5056800;28;20899;-59
2023/10/10 13:55:34;;;;;;;10.10;6.37;;;26.00;1.00;;;;;;5055711;28;20462;-59
2023/10/10 13:58:02;;;;;;;10.50;6.83;;;26.00;1.00;;;;;;5056071;28;20866;-59
2023/10/10 14:00:33;;;;;;;10.13;5.60;;;26.00;1.00;;;;;;5058052;28;20458;-60
2023/10/10 14:03:03;;;;;;;9.30;6.10;;;25.90;1.00;;;;;;5075284;28;20874;-59
2023/10/10 14:05:33;;;;;;;9.03;5.93;;;25.80;1.00;;;;;;5074924;28;20572;-59
2023/10/10 14:08:02;;;;;;;8.87;7.17;;;25.70;1.00;;;;;;5076010;28;20528;-59
2023/10/10 14:10:42;;;;;;;10.37;7.27;;;25.60;1.00;;;;;;5078972;28;20806;-59
2023/10/10 14:13:20;;;;;;;8.97;6.73;;;25.40;1.00;;;;;;5079730;28;20464;-59
2023/10/10 14:15:56;;;;;;;12.20;6.50;;;25.30;1.00;;;;;;5080356;28;20465;-59
2023/10/10 14:18:28;;;;;;;9.60;6.60;;;25.40;1.00;;;;;;5079465;28;20553;-59
2023/10/10 14:20:56;;;;;;;11.57;6.60;;;25.30;1.00;;;;;;5079166;28;20961;-59
2023/10/10 14:23:25;;;;;;;12.57;6.90;;;25.20;1.00;;;;;;5078286;28;20564;-59
2023/10/10 14:26:03;;;;;;;9.70;6.13;;;25.30;1.00;;;;;;5078567;28;20814;-57
2023/10/10 14:28:32;;;;;;;9.10;6.87;;;25.30;1.00;;;;;;5078440;28;20500;-59
2023/10/10 14:30:59;;;;;;;8.50;6.30;;;25.30;1.00;;;;;;5075395;28;20532;-60
2023/10/10 14:33:27;;;;;;;9.87;7.37;;;25.30;1.00;;;;;;5075505;28;20469;-59
2023/10/10 14:35:55;;;;;;;9.07;6.50;;;25.30;1.00;;;;;;5057760;28;20454;-57
2023/10/10 14:38:22;;;;;;;8.20;6.40;;;25.00;1.00;;;;;;5058871;28;20472;-58
2023/10/10 14:40:49;;;;;;;8.43;6.77;;;24.90;1.00;;;;;;5058591;28;20461;-59
2023/10/10 14:43:19;;;;;;;11.23;7.00;;;24.70;1.00;;;;;;5071827;28;20473;-58
2023/10/10 14:45:49;;;;;;;7.37;5.67;;;24.50;1.00;;;;;;5079446;28;20916;-59
2023/10/10 14:48:18;;;;;;;14.23;6.97;;;24.20;1.00;;;;;;5080180;28;20532;-59
2023/10/10 14:50:52;;;;;;;9.43;7.30;;;24.20;1.00;;;;;;5079111;28;20508;-59
2023/10/10 14:53:22;;;;;;;11.37;6.57;;;24.00;1.00;;;;;;5080333;28;20488;-59
2023/10/10 14:55:51;;;;;;;12.13;6.90;;;23.70;1.00;;;;;;5079796;28;20457;-58
2023/10/10 14:58:22;;;;;;;11.13;6.73;;;23.70;1.00;;;;;;5079613;28;20463;-58
2023/10/10 15:00:52;;;;;;;11.00;6.70;;;23.50;1.00;;;;;;5079887;28;20463;-59
2023/10/10 15:03:20;;;;;;;9.77;7.57;;;23.50;1.00;;;;;;5079466;28;20513;-59
2023/10/10 15:05:50;;;;;;;8.80;6.23;;;23.50;1.00;;;;;;5079815;28;20457;-58
2023/10/10 15:08:18;;;;;;;15.30;8.10;;;23.40;1.00;;;;;;5079680;28;20508;-58
2023/10/10 15:10:47;;;;;;;11.57;6.30;;;23.40;1.00;;;;;;5079426;28;20464;-59
2023/10/10 15:13:16;;;;;;;11.97;6.30;;;23.40;1.00;;;;;;5079303;28;20461;-58
2023/10/10 15:15:48;;;;;;;8.73;6.00;;;23.40;1.00;;;;;;5079753;28;20497;-58
2023/10/10 15:18:17;;;;;;;10.80;6.30;;;23.20;1.00;;;;;;5079694;28;20457;-58
2023/10/10 15:20:49;;;;;;;9.53;6.53;;;23.20;1.00;;;;;;5078432;28;20457;-58